Brighton, Utah
Current Conditions -  °F | °C
As of 5:53 PM on Wednesday 22 Oct 2014 (Local Time) from KSLC Reporting Station
Broken Clouds Broken Clouds  
Wind Chill: 60°   Ceiling: 24000
Heat Index: 60°   Visibility: 10mi
Dew Point: 31°   Wind: 9mph
Humidity: 33%   Direction: 340°NNW
Pressure: 30.14"   Gusts: NA
Location:  40.6239°N, 111.817°W
Report Text: KSLC 222353Z 34008KT 10SM FEW110 SCT160 BKN240 16/M01 A3014 RMK AO2 SLP189 T01561006 10172 20128 58005
Loading
Personal Weather Stations






























Interactive Weather Map
Tropical Storm Tracking
New forecast layout! Learn more

10-Day Weather Forecast

Advertisements
Track Severe Weather on mobile